sensor_id;sensor_type;location;lat;lon;timestamp;temperature;humidity
70170;DHT22;57543;45.442;9.212;2023-04-23T00:01:25;17.65;65.73
70170;DHT22;57543;45.442;9.212;2023-04-23T00:04:29;17.65;65.85
70170;DHT22;57543;45.442;9.212;2023-04-23T00:07:37;17.59;66.13
70170;DHT22;57543;45.442;9.212;2023-04-23T00:10:41;17.61;66.25
70170;DHT22;57543;45.442;9.212;2023-04-23T00:13:45;17.70;65.83
70170;DHT22;57543;45.442;9.212;2023-04-23T00:16:51;17.74;65.05
70170;DHT22;57543;45.442;9.212;2023-04-23T00:19:54;17.77;64.56
70170;DHT22;57543;45.442;9.212;2023-04-23T00:22:58;17.80;64.41
70170;DHT22;57543;45.442;9.212;2023-04-23T00:26:02;17.70;65.24
70170;DHT22;57543;45.442;9.212;2023-04-23T00:29:08;17.66;64.94
70170;DHT22;57543;45.442;9.212;2023-04-23T00:32:12;17.63;64.93
70170;DHT22;57543;45.442;9.212;2023-04-23T00:35:17;17.53;65.13
70170;DHT22;57543;45.442;9.212;2023-04-23T00:38:21;17.40;64.76
70170;DHT22;57543;45.442;9.212;2023-04-23T00:41:26;17.34;65.51
70170;DHT22;57543;45.442;9.212;2023-04-23T00:44:30;17.29;65.89
70170;DHT22;57543;45.442;9.212;2023-04-23T00:47:34;17.27;66.07
70170;DHT22;57543;45.442;9.212;2023-04-23T00:50:38;17.19;65.43
70170;DHT22;57543;45.442;9.212;2023-04-23T00:53:42;17.19;62.77
70170;DHT22;57543;45.442;9.212;2023-04-23T00:56:46;17.25;62.02
70170;DHT22;57543;45.442;9.212;2023-04-23T00:59:51;17.31;61.34
70170;DHT22;57543;45.442;9.212;2023-04-23T01:02:56;17.29;62.04
70170;DHT22;57543;45.442;9.212;2023-04-23T01:06:02;17.36;61.26
70170;DHT22;57543;45.442;9.212;2023-04-23T01:09:07;17.45;62.09
70170;DHT22;57543;45.442;9.212;2023-04-23T01:12:12;17.47;60.95
70170;DHT22;57543;45.442;9.212;2023-04-23T01:15:17;17.45;61.44
70170;DHT22;57543;45.442;9.212;2023-04-23T01:18:21;17.34;62.72
70170;DHT22;57543;45.442;9.212;2023-04-23T01:21:26;17.15;63.65
70170;DHT22;57543;45.442;9.212;2023-04-23T01:24:31;17.22;63.41
70170;DHT22;57543;45.442;9.212;2023-04-23T01:27:35;17.25;61.83
70170;DHT22;57543;45.442;9.212;2023-04-23T01:30:41;17.32;61.96
70170;DHT22;57543;45.442;9.212;2023-04-23T01:33:45;17.19;62.21
70170;DHT22;57543;45.442;9.212;2023-04-23T01:36:49;17.08;62.65
70170;DHT22;57543;45.442;9.212;2023-04-23T01:39:54;17.00;63.04
70170;DHT22;57543;45.442;9.212;2023-04-23T01:42:59;16.97;63.49
70170;DHT22;57543;45.442;9.212;2023-04-23T01:46:03;16.85;63.72
70170;DHT22;57543;45.442;9.212;2023-04-23T01:49:07;16.88;62.66
70170;DHT22;57543;45.442;9.212;2023-04-23T01:52:11;16.83;62.58
70170;DHT22;57543;45.442;9.212;2023-04-23T01:55:14;16.83;62.34
70170;DHT22;57543;45.442;9.212;2023-04-23T01:58:18;16.83;62.22
70170;DHT22;57543;45.442;9.212;2023-04-23T02:01:22;16.81;61.56
70170;DHT22;57543;45.442;9.212;2023-04-23T02:04:26;16.99;58.76
70170;DHT22;57543;45.442;9.212;2023-04-23T02:07:31;17.06;57.50
70170;DHT22;57543;45.442;9.212;2023-04-23T02:10:35;16.97;55.40
70170;DHT22;57543;45.442;9.212;2023-04-23T02:13:39;16.95;56.40
70170;DHT22;57543;45.442;9.212;2023-04-23T02:16:43;17.00;56.62
70170;DHT22;57543;45.442;9.212;2023-04-23T02:19:48;17.04;57.15
70170;DHT22;57543;45.442;9.212;2023-04-23T02:22:52;16.97;56.50
70170;DHT22;57543;45.442;9.212;2023-04-23T02:25:56;17.06;55.85
70170;DHT22;57543;45.442;9.212;2023-04-23T02:29:00;17.08;55.44
70170;DHT22;57543;45.442;9.212;2023-04-23T02:32:03;17.00;55.68
70170;DHT22;57543;45.442;9.212;2023-04-23T02:35:07;16.95;56.71
70170;DHT22;57543;45.442;9.212;2023-04-23T02:38:12;16.90;56.93
70170;DHT22;57543;45.442;9.212;2023-04-23T02:41:16;16.91;56.83
70170;DHT22;57543;45.442;9.212;2023-04-23T02:44:19;16.91;56.36
70170;DHT22;57543;45.442;9.212;2023-04-23T02:47:23;16.83;55.41
70170;DHT22;57543;45.442;9.212;2023-04-23T02:50:26;16.93;55.38
70170;DHT22;57543;45.442;9.212;2023-04-23T02:53:30;16.85;55.16
70170;DHT22;57543;45.442;9.212;2023-04-23T02:56:34;16.87;54.78
70170;DHT22;57543;45.442;9.212;2023-04-23T02:59:38;16.87;54.70
70170;DHT22;57543;45.442;9.212;2023-04-23T03:02:42;16.84;54.96
70170;DHT22;57543;45.442;9.212;2023-04-23T03:05:46;16.73;55.55
70170;DHT22;57543;45.442;9.212;2023-04-23T03:08:51;16.62;55.58
70170;DHT22;57543;45.442;9.212;2023-04-23T03:11:55;16.63;55.28
70170;DHT22;57543;45.442;9.212;2023-04-23T03:14:59;16.65;55.57
70170;DHT22;57543;45.442;9.212;2023-04-23T03:18:06;16.66;55.31
70170;DHT22;57543;45.442;9.212;2023-04-23T03:21:10;16.73;55.02
70170;DHT22;57543;45.442;9.212;2023-04-23T03:24:15;16.70;55.25
70170;DHT22;57543;45.442;9.212;2023-04-23T03:27:18;16.62;54.79
70170;DHT22;57543;45.442;9.212;2023-04-23T03:30:22;16.62;54.33
70170;DHT22;57543;45.442;9.212;2023-04-23T03:33:26;16.59;54.39
70170;DHT22;57543;45.442;9.212;2023-04-23T03:36:30;16.66;54.64
70170;DHT22;57543;45.442;9.212;2023-04-23T03:39:34;16.65;54.37
70170;DHT22;57543;45.442;9.212;2023-04-23T03:42:39;16.60;54.69
70170;DHT22;57543;45.442;9.212;2023-04-23T03:45:43;16.60;54.91
70170;DHT22;57543;45.442;9.212;2023-04-23T03:48:47;16.66;54.82
70170;DHT22;57543;45.442;9.212;2023-04-23T03:52:00;16.80;54.68
70170;DHT22;57543;45.442;9.212;2023-04-23T03:55:06;16.77;54.99
70170;DHT22;57543;45.442;9.212;2023-04-23T03:58:16;16.69;54.75
70170;DHT22;57543;45.442;9.212;2023-04-23T04:01:22;16.63;54.67
70170;DHT22;57543;45.442;9.212;2023-04-23T04:04:27;16.67;54.72
70170;DHT22;57543;45.442;9.212;2023-04-23T04:07:32;16.72;55.12
70170;DHT22;57543;45.442;9.212;2023-04-23T04:10:36;16.63;55.29
70170;DHT22;57543;45.442;9.212;2023-04-23T04:13:40;16.62;55.14
70170;DHT22;57543;45.442;9.212;2023-04-23T04:16:44;16.55;55.92
70170;DHT22;57543;45.442;9.212;2023-04-23T04:19:47;16.65;55.58
70170;DHT22;57543;45.442;9.212;2023-04-23T04:22:51;16.76;55.00
70170;DHT22;57543;45.442;9.212;2023-04-23T04:25:54;16.73;54.92
70170;DHT22;57543;45.442;9.212;2023-04-23T04:29:00;16.46;55.90
70170;DHT22;57543;45.442;9.212;2023-04-23T04:32:07;16.53;55.66
70170;DHT22;57543;45.442;9.212;2023-04-23T04:35:11;16.59;56.15
70170;DHT22;57543;45.442;9.212;2023-04-23T04:38:16;16.48;56.31
70170;DHT22;57543;45.442;9.212;2023-04-23T04:41:21;16.57;55.69
70170;DHT22;57543;45.442;9.212;2023-04-23T04:44:28;16.49;54.97
70170;DHT22;57543;45.442;9.212;2023-04-23T04:47:32;16.56;54.71
70170;DHT22;57543;45.442;9.212;2023-04-23T04:50:35;16.56;54.93
70170;DHT22;57543;45.442;9.212;2023-04-23T04:53:39;16.63;55.46
70170;DHT22;57543;45.442;9.212;2023-04-23T04:56:42;16.66;55.42
70170;DHT22;57543;45.442;9.212;2023-04-23T04:59:46;16.72;55.39
70170;DHT22;57543;45.442;9.212;2023-04-23T05:02:50;16.62;55.22
70170;DHT22;57543;45.442;9.212;2023-04-23T05:05:54;16.76;54.80
70170;DHT22;57543;45.442;9.212;2023-04-23T05:08:58;16.73;54.46
70170;DHT22;57543;45.442;9.212;2023-04-23T05:12:02;16.59;54.55
70170;DHT22;57543;45.442;9.212;2023-04-23T05:15:10;16.74;54.67
70170;DHT22;57543;45.442;9.212;2023-04-23T05:18:17;16.74;56.69
70170;DHT22;57543;45.442;9.212;2023-04-23T05:21:21;16.83;55.30
70170;DHT22;57543;45.442;9.212;2023-04-23T05:24:25;16.95;55.43
70170;DHT22;57543;45.442;9.212;2023-04-23T05:27:28;16.93;53.78
70170;DHT22;57543;45.442;9.212;2023-04-23T05:30:31;17.03;55.31
70170;DHT22;57543;45.442;9.212;2023-04-23T05:33:35;17.10;53.86
70170;DHT22;57543;45.442;9.212;2023-04-23T05:36:38;17.17;53.37
70170;DHT22;57543;45.442;9.212;2023-04-23T05:39:42;17.19;54.80
70170;DHT22;57543;45.442;9.212;2023-04-23T05:42:45;17.24;53.56
70170;DHT22;57543;45.442;9.212;2023-04-23T05:45:49;17.32;53.29
70170;DHT22;57543;45.442;9.212;2023-04-23T05:48:52;17.21;53.87
70170;DHT22;57543;45.442;9.212;2023-04-23T05:51:56;17.35;54.44
70170;DHT22;57543;45.442;9.212;2023-04-23T05:55:01;17.46;55.44
70170;DHT22;57543;45.442;9.212;2023-04-23T05:58:06;17.49;54.49
70170;DHT22;57543;45.442;9.212;2023-04-23T06:01:09;17.47;55.91
70170;DHT22;57543;45.442;9.212;2023-04-23T06:04:14;17.46;53.13
70170;DHT22;57543;45.442;9.212;2023-04-23T06:07:18;17.70;52.55
70170;DHT22;57543;45.442;9.212;2023-04-23T06:10:22;17.73;50.50
70170;DHT22;57543;45.442;9.212;2023-04-23T06:13:27;17.79;51.34
70170;DHT22;57543;45.442;9.212;2023-04-23T06:16:33;17.83;51.39
70170;DHT22;57543;45.442;9.212;2023-04-23T06:19:36;17.76;51.99
70170;DHT22;57543;45.442;9.212;2023-04-23T06:22:40;17.91;51.85
70170;DHT22;57543;45.442;9.212;2023-04-23T06:25:43;17.94;50.53
70170;DHT22;57543;45.442;9.212;2023-04-23T06:28:47;18.00;49.46
70170;DHT22;57543;45.442;9.212;2023-04-23T06:32:04;18.14;49.72
70170;DHT22;57543;45.442;9.212;2023-04-23T06:35:08;18.19;49.64
70170;DHT22;57543;45.442;9.212;2023-04-23T06:38:11;18.18;50.64
70170;DHT22;57543;45.442;9.212;2023-04-23T06:41:15;18.07;50.98
70170;DHT22;57543;45.442;9.212;2023-04-23T06:44:19;17.89;51.63
70170;DHT22;57543;45.442;9.212;2023-04-23T06:47:30;18.07;51.46
70170;DHT22;57543;45.442;9.212;2023-04-23T06:50:34;18.15;51.39
70170;DHT22;57543;45.442;9.212;2023-04-23T06:53:38;18.28;50.52
70170;DHT22;57543;45.442;9.212;2023-04-23T06:56:42;18.31;50.10
70170;DHT22;57543;45.442;9.212;2023-04-23T06:59:46;18.35;50.53
70170;DHT22;57543;45.442;9.212;2023-04-23T07:02:51;18.51;50.10
70170;DHT22;57543;45.442;9.212;2023-04-23T07:05:54;18.55;48.78
70170;DHT22;57543;45.442;9.212;2023-04-23T07:08:58;18.67;48.93
70170;DHT22;57543;45.442;9.212;2023-04-23T07:12:02;18.79;49.47
70170;DHT22;57543;45.442;9.212;2023-04-23T07:15:06;18.80;47.76
70170;DHT22;57543;45.442;9.212;2023-04-23T07:18:11;18.87;47.49
70170;DHT22;57543;45.442;9.212;2023-04-23T07:21:14;18.91;46.08
70170;DHT22;57543;45.442;9.212;2023-04-23T07:24:18;18.87;47.25
70170;DHT22;57543;45.442;9.212;2023-04-23T07:27:21;19.03;47.48
70170;DHT22;57543;45.442;9.212;2023-04-23T07:30:26;19.08;47.97
70170;DHT22;57543;45.442;9.212;2023-04-23T07:33:29;19.19;47.39
70170;DHT22;57543;45.442;9.212;2023-04-23T07:36:33;19.18;47.21
70170;DHT22;57543;45.442;9.212;2023-04-23T07:39:36;19.24;47.59
70170;DHT22;57543;45.442;9.212;2023-04-23T07:42:40;19.22;47.27
70170;DHT22;57543;45.442;9.212;2023-04-23T07:45:43;19.34;45.93
70170;DHT22;57543;45.442;9.212;2023-04-23T07:48:46;19.35;44.89
70170;DHT22;57543;45.442;9.212;2023-04-23T07:51:50;19.43;45.31
70170;DHT22;57543;45.442;9.212;2023-04-23T07:54:53;19.55;45.84
70170;DHT22;57543;45.442;9.212;2023-04-23T07:57:56;19.62;45.52
70170;DHT22;57543;45.442;9.212;2023-04-23T08:01:01;19.59;46.34
70170;DHT22;57543;45.442;9.212;2023-04-23T08:04:05;19.70;44.77
70170;DHT22;57543;45.442;9.212;2023-04-23T08:07:08;19.56;44.71
70170;DHT22;57543;45.442;9.212;2023-04-23T08:10:11;19.69;43.96
70170;DHT22;57543;45.442;9.212;2023-04-23T08:13:15;19.73;45.79
70170;DHT22;57543;45.442;9.212;2023-04-23T08:16:19;19.93;46.67
70170;DHT22;57543;45.442;9.212;2023-04-23T08:19:22;20.10;44.22
70170;DHT22;57543;45.442;9.212;2023-04-23T08:22:26;20.28;43.44
70170;DHT22;57543;45.442;9.212;2023-04-23T08:25:29;20.38;42.70
70170;DHT22;57543;45.442;9.212;2023-04-23T08:28:33;20.43;42.15
70170;DHT22;57543;45.442;9.212;2023-04-23T08:31:36;20.65;42.30
70170;DHT22;57543;45.442;9.212;2023-04-23T08:34:40;20.83;42.52
70170;DHT22;57543;45.442;9.212;2023-04-23T08:37:44;20.98;43.14
70170;DHT22;57543;45.442;9.212;2023-04-23T08:40:51;21.14;42.95
70170;DHT22;57543;45.442;9.212;2023-04-23T08:44:20;21.24;42.42
70170;DHT22;57543;45.442;9.212;2023-04-23T08:47:26;21.12;42.84
70170;DHT22;57543;45.442;9.212;2023-04-23T08:50:31;21.39;42.38
70170;DHT22;57543;45.442;9.212;2023-04-23T08:53:36;21.52;42.07
70170;DHT22;57543;45.442;9.212;2023-04-23T08:56:40;21.53;41.68
70170;DHT22;57543;45.442;9.212;2023-04-23T08:59:44;21.77;41.50
70170;DHT22;57543;45.442;9.212;2023-04-23T09:02:48;21.89;41.63
70170;DHT22;57543;45.442;9.212;2023-04-23T09:05:53;22.00;41.20
70170;DHT22;57543;45.442;9.212;2023-04-23T09:08:58;22.14;40.81
70170;DHT22;57543;45.442;9.212;2023-04-23T09:12:03;22.24;40.31
70170;DHT22;57543;45.442;9.212;2023-04-23T09:15:08;22.41;40.88
70170;DHT22;57543;45.442;9.212;2023-04-23T09:18:18;22.45;40.42
70170;DHT22;57543;45.442;9.212;2023-04-23T09:21:22;22.69;40.88
70170;DHT22;57543;45.442;9.212;2023-04-23T09:24:26;22.45;41.72
70170;DHT22;57543;45.442;9.212;2023-04-23T09:27:30;22.72;40.22
70170;DHT22;57543;45.442;9.212;2023-04-23T09:30:44;22.55;40.27
70170;DHT22;57543;45.442;9.212;2023-04-23T09:33:51;22.66;40.16
70170;DHT22;57543;45.442;9.212;2023-04-23T09:36:55;22.72;39.47
70170;DHT22;57543;45.442;9.212;2023-04-23T09:40:00;22.84;39.58
70170;DHT22;57543;45.442;9.212;2023-04-23T09:43:04;22.77;40.64
70170;DHT22;57543;45.442;9.212;2023-04-23T09:46:11;23.00;39.31
70170;DHT22;57543;45.442;9.212;2023-04-23T09:49:15;23.03;39.43
70170;DHT22;57543;45.442;9.212;2023-04-23T09:52:18;23.01;40.33
70170;DHT22;57543;45.442;9.212;2023-04-23T09:55:30;22.53;40.02
70170;DHT22;57543;45.442;9.212;2023-04-23T09:58:37;22.39;40.28
70170;DHT22;57543;45.442;9.212;2023-04-23T10:01:44;22.49;40.04
70170;DHT22;57543;45.442;9.212;2023-04-23T10:04:50;22.53;39.09
70170;DHT22;57543;45.442;9.212;2023-04-23T10:07:55;22.63;39.26
70170;DHT22;57543;45.442;9.212;2023-04-23T10:11:01;22.67;39.87
70170;DHT22;57543;45.442;9.212;2023-04-23T10:14:06;22.81;39.46
70170;DHT22;57543;45.442;9.212;2023-04-23T10:17:11;22.91;39.54
70170;DHT22;57543;45.442;9.212;2023-04-23T10:20:15;23.24;40.02
70170;DHT22;57543;45.442;9.212;2023-04-23T10:23:20;23.26;39.10
70170;DHT22;57543;45.442;9.212;2023-04-23T10:26:26;23.52;38.91
70170;DHT22;57543;45.442;9.212;2023-04-23T10:29:32;23.62;38.52
70170;DHT22;57543;45.442;9.212;2023-04-23T10:32:36;23.63;38.69
70170;DHT22;57543;45.442;9.212;2023-04-23T10:35:43;23.32;40.34
70170;DHT22;57543;45.442;9.212;2023-04-23T10:38:47;23.42;38.80
70170;DHT22;57543;45.442;9.212;2023-04-23T10:41:51;23.42;38.59
70170;DHT22;57543;45.442;9.212;2023-04-23T10:45:00;23.56;40.34
70170;DHT22;57543;45.442;9.212;2023-04-23T10:48:04;23.73;39.25
70170;DHT22;57543;45.442;9.212;2023-04-23T10:51:10;23.79;38.61
70170;DHT22;57543;45.442;9.212;2023-04-23T10:54:14;23.70;39.21
70170;DHT22;57543;45.442;9.212;2023-04-23T10:57:18;23.81;38.56
70170;DHT22;57543;45.442;9.212;2023-04-23T11:00:23;23.98;39.12
70170;DHT22;57543;45.442;9.212;2023-04-23T11:03:38;23.93;38.63
70170;DHT22;57543;45.442;9.212;2023-04-23T11:09:49;24.21;39.18
70170;DHT22;57543;45.442;9.212;2023-04-23T11:12:55;24.41;38.97
70170;DHT22;57543;45.442;9.212;2023-04-23T11:16:21;24.55;38.83
70170;DHT22;57543;45.442;9.212;2023-04-23T11:19:25;24.56;38.53
70170;DHT22;57543;45.442;9.212;2023-04-23T11:22:36;24.41;39.50
70170;DHT22;57543;45.442;9.212;2023-04-23T11:25:40;24.20;39.30
70170;DHT22;57543;45.442;9.212;2023-04-23T11:28:46;24.25;38.84
70170;DHT22;57543;45.442;9.212;2023-04-23T11:31:54;24.18;39.45
70170;DHT22;57543;45.442;9.212;2023-04-23T11:34:58;23.93;39.28
70170;DHT22;57543;45.442;9.212;2023-04-23T11:38:07;24.20;39.40
70170;DHT22;57543;45.442;9.212;2023-04-23T11:41:11;24.59;39.40
70170;DHT22;57543;45.442;9.212;2023-04-23T11:44:14;24.88;38.15
70170;DHT22;57543;45.442;9.212;2023-04-23T11:47:18;25.03;38.52
70170;DHT22;57543;45.442;9.212;2023-04-23T11:50:26;24.97;38.31
70170;DHT22;57543;45.442;9.212;2023-04-23T11:53:31;25.10;39.00
70170;DHT22;57543;45.442;9.212;2023-04-23T11:56:35;24.91;38.65
70170;DHT22;57543;45.442;9.212;2023-04-23T11:59:39;25.25;38.61
70170;DHT22;57543;45.442;9.212;2023-04-23T12:05:53;25.48;37.95
70170;DHT22;57543;45.442;9.212;2023-04-23T12:08:58;25.55;38.13
70170;DHT22;57543;45.442;9.212;2023-04-23T12:12:02;25.56;40.64
70170;DHT22;57543;45.442;9.212;2023-04-23T12:15:05;25.76;38.59
70170;DHT22;57543;45.442;9.212;2023-04-23T12:18:10;25.77;38.14
70170;DHT22;57543;45.442;9.212;2023-04-23T12:21:13;25.80;38.39
70170;DHT22;57543;45.442;9.212;2023-04-23T12:24:17;25.69;38.21
70170;DHT22;57543;45.442;9.212;2023-04-23T12:27:21;25.93;37.88
70170;DHT22;57543;45.442;9.212;2023-04-23T12:30:32;26.00;36.83
70170;DHT22;57543;45.442;9.212;2023-04-23T12:33:37;25.96;37.54
70170;DHT22;57543;45.442;9.212;2023-04-23T12:36:45;25.55;37.80
70170;DHT22;57543;45.442;9.212;2023-04-23T12:39:51;25.34;38.24
70170;DHT22;57543;45.442;9.212;2023-04-23T12:42:57;25.39;37.32
70170;DHT22;57543;45.442;9.212;2023-04-23T12:46:01;25.50;37.29
70170;DHT22;57543;45.442;9.212;2023-04-23T12:49:04;25.66;37.43
70170;DHT22;57543;45.442;9.212;2023-04-23T12:52:08;25.69;37.79
70170;DHT22;57543;45.442;9.212;2023-04-23T12:55:12;25.67;38.20
70170;DHT22;57543;45.442;9.212;2023-04-23T12:58:16;25.63;38.74
70170;DHT22;57543;45.442;9.212;2023-04-23T13:01:20;25.49;38.84
70170;DHT22;57543;45.442;9.212;2023-04-23T13:04:24;25.52;38.92
70170;DHT22;57543;45.442;9.212;2023-04-23T13:07:27;25.73;39.22
70170;DHT22;57543;45.442;9.212;2023-04-23T13:10:31;25.89;38.43
70170;DHT22;57543;45.442;9.212;2023-04-23T13:13:35;25.52;38.93
70170;DHT22;57543;45.442;9.212;2023-04-23T13:16:40;25.77;38.83
70170;DHT22;57543;45.442;9.212;2023-04-23T13:19:44;25.45;39.65
70170;DHT22;57543;45.442;9.212;2023-04-23T13:22:47;25.37;39.56
70170;DHT22;57543;45.442;9.212;2023-04-23T13:25:51;24.80;40.42
70170;DHT22;57543;45.442;9.212;2023-04-23T13:28:54;24.94;40.61
70170;DHT22;57543;45.442;9.212;2023-04-23T13:31:58;24.95;41.52
70170;DHT22;57543;45.442;9.212;2023-04-23T13:35:01;25.18;40.58
70170;DHT22;57543;45.442;9.212;2023-04-23T13:38:07;24.94;41.22
70170;DHT22;57543;45.442;9.212;2023-04-23T13:41:10;24.79;41.31
70170;DHT22;57543;45.442;9.212;2023-04-23T13:44:14;24.87;42.16
70170;DHT22;57543;45.442;9.212;2023-04-23T13:47:18;24.80;41.13
70170;DHT22;57543;45.442;9.212;2023-04-23T13:50:22;24.72;41.27
70170;DHT22;57543;45.442;9.212;2023-04-23T13:53:25;24.82;41.14
70170;DHT22;57543;45.442;9.212;2023-04-23T13:56:30;24.67;40.66
70170;DHT22;57543;45.442;9.212;2023-04-23T13:59:34;25.06;41.30
70170;DHT22;57543;45.442;9.212;2023-04-23T14:02:38;25.12;40.53
70170;DHT22;57543;45.442;9.212;2023-04-23T14:05:41;24.93;40.20
70170;DHT22;57543;45.442;9.212;2023-04-23T14:08:45;25.10;40.86
70170;DHT22;57543;45.442;9.212;2023-04-23T14:11:49;25.08;40.59
70170;DHT22;57543;45.442;9.212;2023-04-23T14:14:52;24.73;41.06
70170;DHT22;57543;45.442;9.212;2023-04-23T14:17:56;24.97;40.90
70170;DHT22;57543;45.442;9.212;2023-04-23T14:21:07;24.83;41.14
70170;DHT22;57543;45.442;9.212;2023-04-23T14:24:32;25.08;41.03
70170;DHT22;57543;45.442;9.212;2023-04-23T14:27:46;25.01;41.56
70170;DHT22;57543;45.442;9.212;2023-04-23T14:30:59;25.03;41.09
70170;DHT22;57543;45.442;9.212;2023-04-23T14:34:04;24.70;41.32
70170;DHT22;57543;45.442;9.212;2023-04-23T14:37:08;24.77;41.28
70170;DHT22;57543;45.442;9.212;2023-04-23T14:40:15;24.70;41.48
70170;DHT22;57543;45.442;9.212;2023-04-23T14:43:22;24.66;41.75
70170;DHT22;57543;45.442;9.212;2023-04-23T14:46:26;24.80;42.08
70170;DHT22;57543;45.442;9.212;2023-04-23T14:49:29;24.55;41.58
70170;DHT22;57543;45.442;9.212;2023-04-23T14:52:33;24.48;41.72
70170;DHT22;57543;45.442;9.212;2023-04-23T14:55:36;24.75;41.90
70170;DHT22;57543;45.442;9.212;2023-04-23T14:58:42;24.39;41.98
70170;DHT22;57543;45.442;9.212;2023-04-23T15:01:45;24.35;41.79
70170;DHT22;57543;45.442;9.212;2023-04-23T15:04:49;24.29;41.32
70170;DHT22;57543;45.442;9.212;2023-04-23T15:07:52;24.20;41.81
70170;DHT22;57543;45.442;9.212;2023-04-23T15:10:56;24.17;43.15
70170;DHT22;57543;45.442;9.212;2023-04-23T15:14:07;24.07;41.70
70170;DHT22;57543;45.442;9.212;2023-04-23T15:17:12;24.15;41.97
70170;DHT22;57543;45.442;9.212;2023-04-23T15:20:16;24.10;40.80
70170;DHT22;57543;45.442;9.212;2023-04-23T15:23:20;24.07;41.41
70170;DHT22;57543;45.442;9.212;2023-04-23T15:26:26;24.14;39.69
70170;DHT22;57543;45.442;9.212;2023-04-23T15:29:30;24.17;39.45
70170;DHT22;57543;45.442;9.212;2023-04-23T15:32:33;24.08;40.11
70170;DHT22;57543;45.442;9.212;2023-04-23T15:35:37;24.01;39.87
70170;DHT22;57543;45.442;9.212;2023-04-23T15:38:41;23.94;39.09
70170;DHT22;57543;45.442;9.212;2023-04-23T15:41:45;23.94;39.03
70170;DHT22;57543;45.442;9.212;2023-04-23T15:44:50;23.97;38.48
70170;DHT22;57543;45.442;9.212;2023-04-23T15:47:57;23.79;37.88
70170;DHT22;57543;45.442;9.212;2023-04-23T15:51:02;23.77;38.00
70170;DHT22;57543;45.442;9.212;2023-04-23T15:54:05;23.69;37.39
70170;DHT22;57543;45.442;9.212;2023-04-23T15:57:10;23.51;37.44
70170;DHT22;57543;45.442;9.212;2023-04-23T16:00:14;23.56;37.59
70170;DHT22;57543;45.442;9.212;2023-04-23T16:03:19;23.53;37.78
70170;DHT22;57543;45.442;9.212;2023-04-23T16:06:23;23.48;38.16
70170;DHT22;57543;45.442;9.212;2023-04-23T16:09:27;23.34;39.10
70170;DHT22;57543;45.442;9.212;2023-04-23T16:12:30;23.34;39.06
70170;DHT22;57543;45.442;9.212;2023-04-23T16:15:35;23.21;38.77
70170;DHT22;57543;45.442;9.212;2023-04-23T16:18:38;23.28;38.86
70170;DHT22;57543;45.442;9.212;2023-04-23T16:21:42;23.37;38.81
70170;DHT22;57543;45.442;9.212;2023-04-23T16:24:46;23.38;39.01
70170;DHT22;57543;45.442;9.212;2023-04-23T16:27:50;23.01;40.61
70170;DHT22;57543;45.442;9.212;2023-04-23T16:30:53;23.11;40.20
70170;DHT22;57543;45.442;9.212;2023-04-23T16:33:57;23.15;40.11
70170;DHT22;57543;45.442;9.212;2023-04-23T16:37:01;23.11;40.24
70170;DHT22;57543;45.442;9.212;2023-04-23T16:40:05;23.11;40.70
70170;DHT22;57543;45.442;9.212;2023-04-23T16:43:09;23.01;40.79
70170;DHT22;57543;45.442;9.212;2023-04-23T16:46:16;23.04;40.99
70170;DHT22;57543;45.442;9.212;2023-04-23T16:49:20;23.04;41.17
70170;DHT22;57543;45.442;9.212;2023-04-23T16:52:24;23.00;41.12
70170;DHT22;57543;45.442;9.212;2023-04-23T16:55:28;22.90;42.23
70170;DHT22;57543;45.442;9.212;2023-04-23T16:58:32;22.74;42.14
70170;DHT22;57543;45.442;9.212;2023-04-23T17:01:38;22.28;43.85
70170;DHT22;57543;45.442;9.212;2023-04-23T17:04:41;22.46;42.98
70170;DHT22;57543;45.442;9.212;2023-04-23T17:07:45;22.49;42.75
70170;DHT22;57543;45.442;9.212;2023-04-23T17:10:48;22.52;42.84
70170;DHT22;57543;45.442;9.212;2023-04-23T17:13:53;22.49;42.66
70170;DHT22;57543;45.442;9.212;2023-04-23T17:16:56;22.51;42.69
70170;DHT22;57543;45.442;9.212;2023-04-23T17:20:00;22.53;42.51
70170;DHT22;57543;45.442;9.212;2023-04-23T17:23:03;22.53;42.60
70170;DHT22;57543;45.442;9.212;2023-04-23T17:26:07;22.42;42.74
70170;DHT22;57543;45.442;9.212;2023-04-23T17:29:11;22.39;43.00
70170;DHT22;57543;45.442;9.212;2023-04-23T17:32:15;22.34;43.11
70170;DHT22;57543;45.442;9.212;2023-04-23T17:35:19;22.31;43.02
70170;DHT22;57543;45.442;9.212;2023-04-23T17:38:22;22.27;43.66
70170;DHT22;57543;45.442;9.212;2023-04-23T17:41:29;22.17;43.65
70170;DHT22;57543;45.442;9.212;2023-04-23T17:44:33;22.15;43.89
70170;DHT22;57543;45.442;9.212;2023-04-23T17:47:37;22.08;43.47
70170;DHT22;57543;45.442;9.212;2023-04-23T17:50:43;22.04;43.48
70170;DHT22;57543;45.442;9.212;2023-04-23T17:53:46;22.02;43.01
70170;DHT22;57543;45.442;9.212;2023-04-23T17:56:50;21.93;43.52
70170;DHT22;57543;45.442;9.212;2023-04-23T17:59:54;21.82;44.51
70170;DHT22;57543;45.442;9.212;2023-04-23T18:02:58;21.80;45.28
70170;DHT22;57543;45.442;9.212;2023-04-23T18:06:01;21.72;45.78
70170;DHT22;57543;45.442;9.212;2023-04-23T18:09:05;21.66;45.12
70170;DHT22;57543;45.442;9.212;2023-04-23T18:12:11;21.60;45.01
70170;DHT22;57543;45.442;9.212;2023-04-23T18:15:16;21.52;45.24
70170;DHT22;57543;45.442;9.212;2023-04-23T18:18:20;21.41;45.21
70170;DHT22;57543;45.442;9.212;2023-04-23T18:21:24;21.43;45.26
70170;DHT22;57543;45.442;9.212;2023-04-23T18:24:34;21.41;44.49
70170;DHT22;57543;45.442;9.212;2023-04-23T18:27:41;21.15;44.93
70170;DHT22;57543;45.442;9.212;2023-04-23T18:30:44;21.11;45.42
70170;DHT22;57543;45.442;9.212;2023-04-23T18:33:53;21.12;44.25
70170;DHT22;57543;45.442;9.212;2023-04-23T18:37:02;20.98;45.54
70170;DHT22;57543;45.442;9.212;2023-04-23T18:40:06;21.00;44.02
70170;DHT22;57543;45.442;9.212;2023-04-23T18:43:10;21.05;44.42
70170;DHT22;57543;45.442;9.212;2023-04-23T18:46:16;21.04;44.44
70170;DHT22;57543;45.442;9.212;2023-04-23T18:52:33;21.11;43.28
70170;DHT22;57543;45.442;9.212;2023-04-23T18:55:41;21.14;43.07
70170;DHT22;57543;45.442;9.212;2023-04-23T18:58:44;20.79;43.74
70170;DHT22;57543;45.442;9.212;2023-04-23T19:01:47;20.81;44.04
70170;DHT22;57543;45.442;9.212;2023-04-23T19:04:51;20.77;44.25
70170;DHT22;57543;45.442;9.212;2023-04-23T19:07:55;20.70;44.16
70170;DHT22;57543;45.442;9.212;2023-04-23T19:10:59;20.62;44.66
70170;DHT22;57543;45.442;9.212;2023-04-23T19:14:06;20.59;44.51
70170;DHT22;57543;45.442;9.212;2023-04-23T19:17:12;20.56;44.83
70170;DHT22;57543;45.442;9.212;2023-04-23T19:20:16;20.50;44.76
70170;DHT22;57543;45.442;9.212;2023-04-23T19:23:20;20.42;45.70
70170;DHT22;57543;45.442;9.212;2023-04-23T19:26:24;20.36;45.79
70170;DHT22;57543;45.442;9.212;2023-04-23T19:29:28;20.42;45.99
70170;DHT22;57543;45.442;9.212;2023-04-23T19:32:32;20.36;46.10
70170;DHT22;57543;45.442;9.212;2023-04-23T19:35:38;20.36;45.61